Time;durP1;ratioP1;P1;durP2;ratioP2;P2;SDS_P1;SDS_P2;PMS_P1;PMS_P2;Temp;Humidity;BMP_temperature;BMP_pressure;BME280_temperature;BME280_humidity;BME280_pressure;Samples;Min_cycle;Max_cycle;Signal;HPM_P1;HPM_P2
2021/03/03 00:00:12;;;;;;;57.50;21.30;;;;;;;0.72;87.33;100205.72;5000578;28;20021;-68
2021/03/03 00:02:38;;;;;;;54.50;21.47;;;;;;;0.67;87.48;100211.38;5017873;28;20120;-68
2021/03/03 00:05:03;;;;;;;51.73;20.73;;;;;;;0.66;87.81;100213.00;4999587;28;20399;-67
2021/03/03 00:07:29;;;;;;;47.97;20.47;;;;;;;0.64;87.76;100204.50;5017377;28;20030;-68
2021/03/03 00:09:54;;;;;;;55.70;21.00;;;;;;;0.66;87.70;100199.53;5016121;28;20061;-68
2021/03/03 00:12:20;;;;;;;54.07;21.37;;;;;;;0.64;87.97;100201.09;5001549;28;20359;-69
2021/03/03 00:14:45;;;;;;;48.27;21.33;;;;;;;0.58;87.68;100195.81;5019432;28;20359;-67
2021/03/03 00:17:10;;;;;;;43.60;21.03;;;;;;;0.52;88.09;100198.03;5018057;28;20092;-70
2021/03/03 00:19:36;;;;;;;52.80;21.33;;;;;;;0.50;88.22;100200.50;5000575;28;20030;-69
2021/03/03 00:22:02;;;;;;;50.50;19.77;;;;;;;0.42;88.16;100191.72;5018722;28;20034;-69
2021/03/03 00:24:27;;;;;;;45.73;21.27;;;;;;;0.45;88.65;100192.72;5019403;28;20361;-69
2021/03/03 00:26:53;;;;;;;56.40;21.67;;;;;;;0.48;88.09;100199.56;5018559;28;20378;-70
2021/03/03 00:29:18;;;;;;;50.00;23.00;;;;;;;0.50;88.75;100197.09;5000579;28;20063;-69
2021/03/03 00:31:44;;;;;;;57.87;20.90;;;;;;;0.45;88.46;100194.38;5018802;28;20041;-69
2021/03/03 00:34:09;;;;;;;55.37;21.50;;;;;;;0.37;88.03;100193.16;5018733;28;20037;-69
2021/03/03 00:36:35;;;;;;;44.80;19.60;;;;;;;0.35;88.14;100190.56;5017475;28;20081;-68
2021/03/03 00:39:00;;;;;;;48.93;20.03;;;;;;;0.40;88.74;100193.28;5017398;28;20049;-68
2021/03/03 00:41:25;;;;;;;54.50;20.77;;;;;;;0.44;88.60;100188.47;5018619;28;20072;-68
2021/03/03 00:43:51;;;;;;;58.90;22.57;;;;;;;0.39;88.47;100184.00;5018590;28;20034;-69
2021/03/03 00:46:16;;;;;;;54.97;20.63;;;;;;;0.36;88.21;100189.78;5017257;28;20026;-69
2021/03/03 00:48:42;;;;;;;50.07;19.93;;;;;;;0.24;88.08;100184.16;4991727;28;20050;-70
2021/03/03 00:51:07;;;;;;;46.87;20.43;;;;;;;0.17;88.40;100188.84;4998810;28;20068;-69
2021/03/03 00:53:33;;;;;;;53.47;21.50;;;;;;;0.16;88.18;100192.16;4998530;28;20080;-69
2021/03/03 00:55:58;;;;;;;56.73;21.17;;;;;;;0.12;88.33;100197.84;4996622;28;20038;-69
2021/03/03 00:58:24;;;;;;;51.40;20.47;;;;;;;0.17;88.76;100191.38;4997819;28;20034;-69
2021/03/03 01:00:49;;;;;;;55.17;22.10;;;;;;;0.25;88.54;100192.59;4997233;28;20065;-69
2021/03/03 01:03:36;;;;;;;47.30;19.97;;;;;;;0.34;88.50;100188.81;4998150;28;20037;-70
2021/03/03 01:06:02;;;;;;;60.20;22.80;;;;;;;0.22;88.29;100179.81;4997037;28;20090;-69
2021/03/03 01:08:27;;;;;;;49.60;21.37;;;;;;;0.25;88.70;100175.81;4998092;28;20367;-69
2021/03/03 01:10:53;;;;;;;50.97;21.57;;;;;;;0.29;88.62;100175.16;4998522;28;20026;-69
2021/03/03 01:13:18;;;;;;;53.00;20.20;;;;;;;0.27;88.55;100178.38;4997745;28;20038;-69
2021/03/03 01:15:43;;;;;;;54.40;20.83;;;;;;;0.17;88.22;100179.59;4997342;28;20057;-69
2021/03/03 01:18:09;;;;;;;53.37;22.37;;;;;;;0.14;88.71;100171.03;4997883;28;20375;-69
2021/03/03 01:20:34;;;;;;;45.90;18.07;;;;;;;0.18;88.52;100168.72;4998755;28;20053;-69
2021/03/03 01:23:00;;;;;;;50.23;19.83;;;;;;;0.17;88.62;100172.03;4997316;28;20068;-68
2021/03/03 01:25:26;;;;;;;55.00;20.27;;;;;;;0.20;88.74;100162.13;4997113;28;20121;-68
2021/03/03 01:27:52;;;;;;;48.50;19.63;;;;;;;0.17;88.72;100158.59;4997876;28;20318;-69
2021/03/03 01:30:18;;;;;;;48.43;19.00;;;;;;;0.11;88.47;100148.22;4998181;28;20410;-68
2021/03/03 01:32:43;;;;;;;51.33;19.53;;;;;;;0.15;88.42;100160.16;4995764;28;20117;-68
2021/03/03 01:35:10;;;;;;;46.70;19.37;;;;;;;0.34;88.75;100157.72;4996051;28;20116;-67
2021/03/03 01:37:35;;;;;;;50.97;20.57;;;;;;;0.35;88.38;100156.91;4996996;28;20065;-67
2021/03/03 01:40:02;;;;;;;47.33;20.17;;;;;;;0.31;88.21;100150.84;4998068;28;20327;-67
2021/03/03 01:42:28;;;;;;;47.80;20.03;;;;;;;0.28;88.29;100143.16;4997034;28;20319;-67
2021/03/03 01:44:54;;;;;;;53.43;20.27;;;;;;;0.29;88.50;100142.38;4996928;28;20034;-67
2021/03/03 01:47:19;;;;;;;55.60;19.00;;;;;;;0.23;88.38;100137.03;5003360;28;20334;-68
2021/03/03 01:49:45;;;;;;;55.73;22.07;;;;;;;0.33;88.80;100143.38;5017568;28;20459;-68
2021/03/03 01:52:10;;;;;;;61.37;21.53;;;;;;;0.42;88.26;100142.09;5015398;28;20030;-67
2021/03/03 01:54:36;;;;;;;50.30;19.37;;;;;;;0.30;88.39;100121.38;5015969;28;20037;-67
2021/03/03 01:57:02;;;;;;;55.10;20.37;;;;;;;0.32;88.27;100134.94;5017388;28;20030;-67
2021/03/03 01:59:28;;;;;;;58.07;21.50;;;;;;;0.23;88.40;100126.94;5016330;28;20041;-67
2021/03/03 02:01:54;;;;;;;54.93;20.47;;;;;;;0.21;88.30;100120.94;5015381;28;20029;-67
2021/03/03 02:04:19;;;;;;;55.97;21.37;;;;;;;0.18;88.63;100122.47;5016663;28;20283;-67
2021/03/03 02:06:52;;;;;;;48.90;21.90;;;;;;;0.17;88.71;100116.56;5018563;28;20034;-67
2021/03/03 02:09:27;;;;;;;53.93;20.13;;;;;;;0.10;88.36;100124.66;5020303;28;20041;-67
2021/03/03 02:11:58;;;;;;;51.30;21.17;;;;;;;0.02;88.17;100120.91;5018939;28;20049;-67
2021/03/03 02:14:27;;;;;;;49.53;19.77;;;;;;;-0.10;88.43;100117.81;5020426;28;20304;-67
2021/03/03 02:16:54;;;;;;;48.33;20.33;;;;;;;-0.14;88.76;100115.94;5021148;28;20057;-67
2021/03/03 02:19:28;;;;;;;53.17;19.93;;;;;;;-0.18;88.60;100117.47;5020689;28;20441;-66
2021/03/03 02:22:07;;;;;;;45.53;19.77;;;;;;;-0.26;88.89;100111.22;5019802;28;20117;-67
2021/03/03 02:24:42;;;;;;;56.77;21.03;;;;;;;-0.30;88.76;100113.50;5003148;28;20041;-67
2021/03/03 02:27:09;;;;;;;46.47;18.90;;;;;;;-0.44;88.93;100107.81;5020309;28;20040;-66
2021/03/03 02:29:34;;;;;;;43.77;19.97;;;;;;;-0.50;89.13;100104.97;5000989;28;20049;-68
2021/03/03 02:32:00;;;;;;;41.73;18.83;;;;;;;-0.53;89.15;100103.19;5020055;28;20037;-67
2021/03/03 02:34:28;;;;;;;48.70;20.03;;;;;;;-0.42;89.74;100103.69;5021253;28;20287;-67
2021/03/03 02:36:54;;;;;;;56.20;21.07;;;;;;;-0.34;89.85;100109.94;5020760;28;20311;-67
2021/03/03 02:39:23;;;;;;;53.60;20.80;;;;;;;-0.31;90.04;100104.22;5019705;28;20057;-67
2021/03/03 02:41:50;;;;;;;50.37;20.70;;;;;;;-0.26;89.78;100108.69;5020130;28;20025;-67
2021/03/03 02:44:16;;;;;;;50.97;18.70;;;;;;;-0.23;89.35;100107.97;5020462;28;20033;-68
2021/03/03 02:46:44;;;;;;;52.00;19.67;;;;;;;-0.16;88.84;100105.78;5020166;28;20363;-67
2021/03/03 02:49:10;;;;;;;50.70;19.07;;;;;;;-0.18;88.22;100112.44;5019662;28;20057;-67
2021/03/03 02:51:35;;;;;;;48.07;19.90;;;;;;;-0.21;88.08;100106.38;5020092;28;20414;-67
2021/03/03 02:54:01;;;;;;;46.27;19.83;;;;;;;-0.29;88.40;100105.13;5020586;28;20037;-67
2021/03/03 02:56:28;;;;;;;43.00;20.00;;;;;;;-0.12;88.63;100119.41;5019751;28;20136;-67
2021/03/03 02:58:54;;;;;;;53.40;20.67;;;;;;;-0.20;88.30;100113.13;5002294;28;20030;-67
2021/03/03 03:01:21;;;;;;;59.90;24.37;;;;;;;-0.16;87.97;100118.41;5018967;28;20072;-66
2021/03/03 03:03:54;;;;;;;47.27;19.57;;;;;;;-0.19;87.81;100112.34;5019650;28;20026;-67
2021/03/03 03:06:31;;;;;;;56.80;20.13;;;;;;;-0.28;88.16;100112.78;5020356;28;20030;-67
2021/03/03 03:09:01;;;;;;;55.30;21.00;;;;;;;-0.41;88.18;100104.56;5003880;28;20026;-66
2021/03/03 03:11:31;;;;;;;46.17;19.50;;;;;;;-0.44;88.49;100111.97;5021755;28;20076;-67
2021/03/03 03:14:08;;;;;;;52.33;19.90;;;;;;;-0.45;88.58;100106.06;5019406;28;20029;-66
2021/03/03 03:16:36;;;;;;;53.20;20.17;;;;;;;-0.58;88.29;100111.28;5020512;28;20065;-68
2021/03/03 03:19:06;;;;;;;41.60;17.17;;;;;;;-0.63;88.46;100120.28;5002249;28;20034;-68
2021/03/03 03:21:39;;;;;;;54.40;22.13;;;;;;;-0.65;88.50;100115.19;5020435;28;20041;-66
2021/03/03 03:24:08;;;;;;;44.37;18.67;;;;;;;-0.72;88.41;100114.81;5018711;28;20105;-66
2021/03/03 03:26:38;;;;;;;44.83;17.40;;;;;;;-0.82;88.21;100110.97;5001664;28;20029;-66
2021/03/03 03:29:08;;;;;;;45.40;17.63;;;;;;;-0.90;88.65;100112.25;4982238;28;20038;-66
2021/03/03 03:31:38;;;;;;;41.40;16.27;;;;;;;-1.03;88.37;100118.31;5003151;28;20113;-66
2021/03/03 03:34:11;;;;;;;46.27;18.83;;;;;;;-1.02;88.58;100120.03;5002903;28;20030;-66
2021/03/03 03:36:38;;;;;;;45.20;18.33;;;;;;;-1.08;88.64;100117.22;5001660;28;20026;-66
2021/03/03 03:39:09;;;;;;;49.93;18.80;;;;;;;-1.10;88.49;100126.31;5018173;28;20037;-66
2021/03/03 03:41:36;;;;;;;44.43;17.20;;;;;;;-1.19;88.48;100125.00;5003397;28;20080;-67
2021/03/03 03:44:05;;;;;;;48.73;19.97;;;;;;;-1.21;88.47;100119.91;5017641;28;20298;-66
2021/03/03 03:46:33;;;;;;;44.63;17.97;;;;;;;-1.25;88.72;100125.56;5017149;28;20362;-66
2021/03/03 03:48:59;;;;;;;39.33;15.50;;;;;;;-1.29;88.33;100123.66;5019117;28;20053;-66
2021/03/03 03:51:26;;;;;;;51.43;17.60;;;;;;;-1.34;88.83;100126.72;5019735;28;20065;-66
2021/03/03 03:53:53;;;;;;;48.27;18.13;;;;;;;-1.16;88.87;100132.72;5001447;28;20099;-67
2021/03/03 03:56:19;;;;;;;48.50;17.53;;;;;;;-0.96;89.77;100132.94;5000892;28;20041;-66
2021/03/03 03:58:44;;;;;;;51.53;19.10;;;;;;;-0.89;89.34;100133.25;5018642;28;20030;-67
2021/03/03 04:01:10;;;;;;;54.70;18.37;;;;;;;-0.92;89.25;100129.78;5018844;28;20030;-67
2021/03/03 04:03:35;;;;;;;48.30;18.33;;;;;;;-0.95;88.95;100131.28;5000615;28;20157;-67
2021/03/03 04:06:01;;;;;;;43.70;19.10;;;;;;;-0.94;88.95;100128.84;5017967;28;20373;-66
2021/03/03 04:08:27;;;;;;;54.60;19.37;;;;;;;-0.97;89.22;100136.22;5018693;28;20294;-66
2021/03/03 04:10:52;;;;;;;50.80;20.30;;;;;;;-1.04;88.81;100129.16;5018575;28;20133;-68
2021/03/03 04:13:19;;;;;;;54.90;19.33;;;;;;;-1.09;88.74;100128.06;5017205;28;20033;-69
2021/03/03 04:15:44;;;;;;;47.23;19.70;;;;;;;-1.16;88.73;100135.22;5018087;28;20291;-68
2021/03/03 04:18:11;;;;;;;45.53;17.97;;;;;;;-1.18;88.89;100134.25;5018887;28;20038;-68
2021/03/03 04:20:37;;;;;;;42.67;18.57;;;;;;;-1.25;88.54;100132.22;5017823;28;20104;-68
2021/03/03 04:23:03;;;;;;;51.10;20.80;;;;;;;-1.30;88.86;100133.63;5017888;28;20159;-69
2021/03/03 04:25:29;;;;;;;41.20;16.83;;;;;;;-1.39;88.67;100129.00;5019211;28;20064;-69
2021/03/03 04:27:54;;;;;;;52.93;19.60;;;;;;;-1.43;88.71;100134.66;5018398;28;20122;-67
2021/03/03 04:30:21;;;;;;;48.30;18.17;;;;;;;-1.44;88.91;100140.47;5017570;28;20046;-68
2021/03/03 04:32:46;;;;;;;50.97;18.07;;;;;;;-1.54;88.64;100138.25;5017400;28;20044;-69
2021/03/03 04:35:11;;;;;;;45.93;18.43;;;;;;;-1.57;88.71;100133.09;5016963;28;20022;-69
2021/03/03 04:37:38;;;;;;;53.70;21.67;;;;;;;-1.53;88.85;100134.97;5016559;28;20415;-69
2021/03/03 04:40:09;;;;;;;51.20;19.90;;;;;;;-1.52;88.63;100142.56;5015126;28;20383;-69
2021/03/03 04:42:35;;;;;;;53.03;19.83;;;;;;;-1.60;88.24;100142.94;5000425;28;20025;-70
2021/03/03 04:45:01;;;;;;;44.80;17.33;;;;;;;-1.63;88.23;100138.66;5018486;28;20044;-70
2021/03/03 04:47:27;;;;;;;46.20;17.30;;;;;;;-1.66;88.54;100143.53;4999574;28;20056;-69
2021/03/03 04:49:52;;;;;;;50.80;19.53;;;;;;;-1.74;88.01;100133.84;5016891;28;20041;-69
2021/03/03 04:52:17;;;;;;;47.87;19.50;;;;;;;-1.72;87.99;100140.66;5016478;28;20029;-69
2021/03/03 04:54:43;;;;;;;49.00;18.57;;;;;;;-1.75;88.34;100137.13;5015856;28;20283;-69
2021/03/03 04:57:08;;;;;;;54.60;18.87;;;;;;;-1.76;88.17;100135.38;5016792;28;20030;-69
2021/03/03 04:59:34;;;;;;;47.30;16.83;;;;;;;-1.76;88.42;100136.25;5000196;28;20274;-69
2021/03/03 05:01:59;;;;;;;43.17;18.70;;;;;;;-1.74;88.32;100131.31;5017809;28;20026;-69
2021/03/03 05:04:25;;;;;;;43.50;16.27;;;;;;;-1.70;88.46;100130.69;5018839;28;20026;-69
2021/03/03 05:06:50;;;;;;;53.27;20.30;;;;;;;-1.63;89.46;100133.63;5016654;28;20025;-69
2021/03/03 05:09:16;;;;;;;65.17;20.93;;;;;;;-1.57;89.51;100128.06;5017302;28;20139;-69
2021/03/03 05:11:42;;;;;;;48.83;18.00;;;;;;;-1.47;89.82;100128.59;5017381;28;20030;-69
2021/03/03 05:14:07;;;;;;;53.13;18.13;;;;;;;-1.40;89.42;100128.13;5018318;28;20033;-69
2021/03/03 05:16:33;;;;;;;59.00;22.30;;;;;;;-1.32;89.78;100127.69;5014816;28;20037;-69
2021/03/03 05:18:58;;;;;;;40.17;18.17;;;;;;;-1.26;90.10;100125.47;5015969;28;20026;-69
2021/03/03 05:21:23;;;;;;;49.60;18.23;;;;;;;-1.23;89.90;100123.97;5000536;28;20036;-69
2021/03/03 05:23:49;;;;;;;55.17;18.13;;;;;;;-1.26;89.45;100123.81;5018082;28;20030;-69
2021/03/03 05:26:14;;;;;;;45.27;18.23;;;;;;;-1.28;89.59;100119.50;5015928;28;20026;-69
2021/03/03 05:28:40;;;;;;;42.80;17.00;;;;;;;-1.30;89.55;100121.06;4996013;28;20413;-69
2021/03/03 05:31:06;;;;;;;51.17;18.73;;;;;;;-1.34;89.32;100107.47;4996801;28;20034;-69
2021/03/03 05:33:33;;;;;;;55.07;19.33;;;;;;;-1.21;89.59;100114.88;5017846;28;20026;-69
2021/03/03 05:36:02;;;;;;;48.20;19.10;;;;;;;-1.19;89.32;100114.94;5015698;28;20030;-69
2021/03/03 05:38:28;;;;;;;48.27;18.00;;;;;;;-1.16;89.84;100115.97;5015649;28;20061;-68
2021/03/03 05:40:55;;;;;;;50.00;20.43;;;;;;;-1.10;89.75;100111.22;4998611;28;20368;-69
2021/03/03 05:43:21;;;;;;;48.57;19.43;;;;;;;-1.05;89.49;100104.78;5017571;28;20022;-69
2021/03/03 05:45:48;;;;;;;48.93;18.57;;;;;;;-1.07;89.33;100103.00;4998108;28;20034;-69
2021/03/03 05:48:24;;;;;;;41.10;17.60;;;;;;;-1.03;89.17;100102.34;4995728;28;20121;-69
2021/03/03 05:51:11;;;;;;;57.90;21.23;;;;;;;-1.04;88.95;100108.16;4994817;28;20038;-69
2021/03/03 05:53:37;;;;;;;48.07;20.03;;;;;;;-1.05;89.14;100101.41;4997131;28;20038;-68
2021/03/03 05:56:05;;;;;;;55.23;20.67;;;;;;;-0.96;89.01;100095.19;4996232;28;20057;-69
2021/03/03 05:58:34;;;;;;;48.70;18.53;;;;;;;-0.92;88.80;100094.53;4996647;28;20026;-68
2021/03/03 06:01:02;;;;;;;43.90;16.40;;;;;;;-0.83;88.51;100098.31;4992695;28;20022;-69
2021/03/03 06:03:28;;;;;;;57.40;21.33;;;;;;;-0.83;88.48;100099.16;4996234;28;20030;-70
2021/03/03 06:05:55;;;;;;;48.97;18.70;;;;;;;-0.79;88.32;100093.50;4997620;28;20022;-69
2021/03/03 06:08:23;;;;;;;51.37;18.97;;;;;;;-0.71;88.48;100094.72;5000858;28;20026;-69
2021/03/03 06:10:49;;;;;;;45.33;17.07;;;;;;;-0.59;88.14;100104.53;4998519;28;20082;-68
2021/03/03 06:13:15;;;;;;;49.10;19.47;;;;;;;-0.54;87.86;100100.59;4972527;28;20039;-69
2021/03/03 06:15:42;;;;;;;51.83;20.00;;;;;;;-0.43;87.61;100101.97;4994424;28;20030;-69
2021/03/03 06:18:09;;;;;;;56.53;19.83;;;;;;;-0.31;87.40;100105.09;4997459;28;20339;-68
2021/03/03 06:20:40;;;;;;;45.10;17.27;;;;;;;-0.20;86.75;100101.41;4996858;28;20026;-69
2021/03/03 06:23:25;;;;;;;54.83;21.13;;;;;;;-0.10;86.41;100101.06;4995408;28;20034;-69
2021/03/03 06:25:56;;;;;;;56.30;20.33;;;;;;;-0.03;86.55;100105.56;4994824;28;20037;-69
2021/03/03 06:28:34;;;;;;;45.37;19.27;;;;;;;0.08;86.17;100100.19;4997707;28;20041;-69
2021/03/03 06:31:01;;;;;;;51.17;20.00;;;;;;;0.11;85.63;100097.78;4995479;28;20026;-68
2021/03/03 06:33:27;;;;;;;44.77;17.57;;;;;;;0.24;85.93;100102.59;4996754;28;20029;-68
2021/03/03 06:35:53;;;;;;;48.03;19.03;;;;;;;0.33;85.53;100110.59;4995868;28;20049;-70
2021/03/03 06:38:29;;;;;;;41.53;15.77;;;;;;;0.56;84.91;100101.50;4998291;28;20144;-70
2021/03/03 06:40:57;;;;;;;48.93;16.27;;;;;;;0.66;84.18;100101.97;4995019;28;20050;-70
2021/03/03 06:43:28;;;;;;;46.80;16.77;;;;;;;0.75;83.78;100099.00;4995906;28;20034;-70
2021/03/03 06:45:55;;;;;;;46.20;18.13;;;;;;;0.77;83.26;100094.88;4995456;28;20033;-69
2021/03/03 06:48:40;;;;;;;42.83;15.73;;;;;;;0.91;82.88;100089.63;5012017;28;20139;-67
2021/03/03 06:51:27;;;;;;;42.85;16.98;;;;;;;1.08;82.81;100090.34;4997385;28;20423;-67
2021/03/03 06:53:55;;;;;;;41.53;16.80;;;;;;;1.20;82.24;100093.34;5017563;28;20021;-67
2021/03/03 06:56:40;;;;;;;39.27;16.70;;;;;;;1.47;81.57;100091.09;5020151;28;20117;-68
2021/03/03 06:59:14;;;;;;;53.03;19.63;;;;;;;1.68;81.06;100094.50;5002900;28;20080;-68
2021/03/03 07:01:41;;;;;;;49.80;17.23;;;;;;;1.89;80.26;100096.13;5015637;28;20582;-70
2021/03/03 07:04:21;;;;;;;40.47;16.57;;;;;;;2.13;79.46;100090.34;5001819;28;20275;-68
2021/03/03 07:06:47;;;;;;;41.03;18.07;;;;;;;2.20;79.34;100093.97;5001300;28;20072;-68
2021/03/03 07:09:13;;;;;;;36.97;15.90;;;;;;;2.36;79.15;100085.28;5001880;28;20439;-70
2021/03/03 07:11:39;;;;;;;37.57;15.57;;;;;;;2.58;78.89;100088.66;5019845;28;20149;-69
2021/03/03 07:14:22;;;;;;;41.53;16.03;;;;;;;2.77;78.28;100085.09;4997614;28;20034;-69
2021/03/03 07:17:08;;;;;;;39.73;16.13;;;;;;;2.84;77.29;100087.06;5001832;28;20284;-69
2021/03/03 07:19:36;;;;;;;32.93;14.33;;;;;;;2.94;76.98;100089.06;5001047;28;20287;-69
2021/03/03 07:22:03;;;;;;;44.00;17.60;;;;;;;3.18;76.70;100079.78;5016156;28;20030;-68
2021/03/03 07:24:29;;;;;;;37.13;14.20;;;;;;;3.34;76.49;100087.91;5017947;28;20022;-68
2021/03/03 07:26:55;;;;;;;35.00;15.23;;;;;;;3.41;75.23;100087.28;5019099;28;20041;-69
2021/03/03 07:29:20;;;;;;;36.23;15.23;;;;;;;3.55;75.12;100086.94;5019124;28;20442;-69
2021/03/03 07:31:46;;;;;;;33.20;14.27;;;;;;;3.70;73.86;100091.59;5019951;28;20044;-69
2021/03/03 07:34:12;;;;;;;26.20;12.37;;;;;;;3.94;74.08;100086.47;5020465;28;20284;-70
2021/03/03 07:36:39;;;;;;;29.10;13.43;;;;;;;4.19;73.39;100086.38;5018178;28;20030;-68
2021/03/03 07:39:09;;;;;;;29.10;12.63;;;;;;;4.46;72.93;100091.38;5001904;28;20029;-69
2021/03/03 07:41:45;;;;;;;32.47;13.20;;;;;;;4.68;72.42;100083.56;5018729;28;20029;-70
2021/03/03 07:44:13;;;;;;;30.20;11.80;;;;;;;4.73;72.22;100076.06;5019814;28;20022;-69
2021/03/03 07:46:40;;;;;;;29.90;14.30;;;;;;;5.03;71.71;100087.91;5020339;28;20017;-68
2021/03/03 07:49:08;;;;;;;34.07;13.10;;;;;;;5.23;70.67;100085.00;5001611;28;20030;-69
2021/03/03 07:51:36;;;;;;;28.03;14.80;;;;;;;5.38;69.84;100081.19;5019871;28;20034;-69
2021/03/03 07:54:02;;;;;;;29.83;12.57;;;;;;;5.55;70.15;100081.63;5019750;28;20029;-69
2021/03/03 07:56:29;;;;;;;30.53;14.47;;;;;;;5.72;69.61;100079.47;5018786;28;20366;-69
2021/03/03 07:58:55;;;;;;;35.47;16.93;;;;;;;5.76;69.43;100081.25;5018711;28;20026;-69
2021/03/03 08:01:21;;;;;;;38.90;16.47;;;;;;;5.88;70.01;100074.81;5019721;28;20029;-70
2021/03/03 08:03:47;;;;;;;35.77;17.20;;;;;;;6.07;69.60;100068.41;5019178;28;20025;-69
2021/03/03 08:06:39;;;;;;;39.33;16.20;;;;;;;6.29;69.34;100068.06;5015539;28;20021;-70
2021/03/03 08:09:04;;;;;;;51.60;20.57;;;;;;;6.36;69.54;100067.38;5000496;28;20056;-70
2021/03/03 08:11:30;;;;;;;44.97;20.57;;;;;;;6.39;69.27;100069.13;5018951;28;20367;-68
2021/03/03 08:13:56;;;;;;;53.37;21.13;;;;;;;6.52;68.74;100060.91;5019227;28;20021;-69
2021/03/03 08:16:21;;;;;;;45.23;20.53;;;;;;;6.62;68.84;100067.03;4997366;28;20045;-69
2021/03/03 08:18:50;;;;;;;43.93;19.07;;;;;;;6.82;69.08;100064.06;4996802;28;20430;-69
2021/03/03 08:21:15;;;;;;;39.13;17.17;;;;;;;6.83;68.90;100062.38;5000211;28;20052;-68
2021/03/03 08:24:02;;;;;;;41.20;18.67;;;;;;;6.95;68.63;100061.72;5016667;28;20054;-69
2021/03/03 08:26:29;;;;;;;42.07;18.53;;;;;;;6.93;68.47;100059.13;5015331;28;20099;-70
2021/03/03 08:29:12;;;;;;;45.67;18.87;;;;;;;7.16;67.76;100055.31;5014069;28;20080;-70
2021/03/03 08:31:39;;;;;;;34.10;16.50;;;;;;;7.17;67.76;100054.47;5015408;28;20039;-69
2021/03/03 08:34:07;;;;;;;38.57;17.83;;;;;;;7.24;66.85;100050.34;5017372;28;20057;-69
2021/03/03 08:36:34;;;;;;;42.00;19.47;;;;;;;7.29;66.29;100054.69;5017410;28;20029;-69
2021/03/03 08:38:59;;;;;;;37.03;16.93;;;;;;;7.34;66.83;100055.63;5017580;28;20025;-69
2021/03/03 08:41:25;;;;;;;39.23;18.83;;;;;;;7.37;66.00;100059.06;5017063;28;20060;-69
2021/03/03 08:44:17;;;;;;;44.57;19.73;;;;;;;7.59;66.20;100056.03;5015393;28;20026;-69
2021/03/03 08:46:42;;;;;;;42.87;19.27;;;;;;;7.52;66.28;100054.19;5018491;28;20029;-69
2021/03/03 08:49:08;;;;;;;43.40;21.27;;;;;;;7.56;66.23;100044.06;5017874;28;20022;-69
2021/03/03 08:51:40;;;;;;;46.53;19.87;;;;;;;7.57;66.12;100044.94;5018093;28;20029;-69
2021/03/03 08:54:20;;;;;;;44.20;21.00;;;;;;;7.71;65.95;100049.44;5016762;28;20099;-69
2021/03/03 08:56:51;;;;;;;40.70;20.33;;;;;;;7.61;66.17;100045.00;5016361;28;20049;-69
2021/03/03 08:59:28;;;;;;;51.90;23.43;;;;;;;7.56;66.21;100050.84;5018384;28;20025;-70
2021/03/03 09:02:17;;;;;;;52.67;23.73;;;;;;;7.77;65.82;100048.63;5015665;28;20032;-69
2021/03/03 09:04:49;;;;;;;46.27;22.13;;;;;;;7.98;64.74;100046.41;5013462;28;20080;-68
2021/03/03 09:07:18;;;;;;;49.90;22.90;;;;;;;8.06;65.45;100043.97;5013770;28;20050;-68
2021/03/03 09:09:46;;;;;;;38.40;20.60;;;;;;;8.20;64.04;100047.53;4995152;28;20029;-70
2021/03/03 09:12:14;;;;;;;46.80;23.30;;;;;;;8.32;64.26;100045.19;5012526;28;20080;-69
2021/03/03 09:14:42;;;;;;;46.17;20.57;;;;;;;8.34;64.00;100035.00;5016278;28;20041;-67
2021/03/03 09:17:21;;;;;;;46.13;22.90;;;;;;;8.51;63.10;100033.50;5017175;28;20029;-70
2021/03/03 09:19:47;;;;;;;44.97;21.77;;;;;;;8.47;62.93;100032.59;5014883;28;20030;-69
2021/03/03 09:22:15;;;;;;;45.83;22.03;;;;;;;8.68;63.26;100034.56;5014410;28;20282;-68
2021/03/03 09:24:41;;;;;;;48.33;22.90;;;;;;;8.61;63.16;100027.66;4995378;28;20072;-69
2021/03/03 09:27:08;;;;;;;45.93;21.50;;;;;;;8.65;63.38;100034.53;4997888;28;20096;-69
2021/03/03 09:29:36;;;;;;;49.77;23.33;;;;;;;8.81;62.82;100031.28;5014490;28;20033;-69
2021/03/03 09:32:09;;;;;;;45.43;22.30;;;;;;;8.92;62.92;100022.00;4998235;28;20373;-68
2021/03/03 09:34:43;;;;;;;48.87;23.33;;;;;;;9.04;62.49;100019.56;5015610;28;20248;-69
2021/03/03 09:37:08;;;;;;;55.90;25.43;;;;;;;8.81;63.78;100015.94;5014637;28;20029;-69
2021/03/03 09:39:34;;;;;;;49.03;23.60;;;;;;;8.70;64.39;100023.47;5016804;28;20022;-69
2021/03/03 09:42:07;;;;;;;48.23;22.47;;;;;;;8.77;64.43;100024.44;5016583;28;20034;-69
2021/03/03 09:44:44;;;;;;;48.03;23.20;;;;;;;9.05;63.49;100026.41;5015896;28;20026;-68
2021/03/03 09:47:10;;;;;;;41.70;21.30;;;;;;;9.05;62.74;100023.84;5015346;28;20399;-69
2021/03/03 09:49:37;;;;;;;48.77;23.47;;;;;;;9.19;62.77;100026.53;5017232;28;20048;-68
2021/03/03 09:52:03;;;;;;;42.33;21.87;;;;;;;9.04;62.76;100028.94;5016297;28;20034;-68
2021/03/03 09:54:29;;;;;;;52.27;23.57;;;;;;;9.16;62.71;100024.78;5014867;28;20072;-68
2021/03/03 09:57:00;;;;;;;43.07;21.33;;;;;;;9.33;62.45;100026.66;5015666;28;20450;-69
2021/03/03 09:59:26;;;;;;;48.63;22.63;;;;;;;9.36;62.25;100021.56;5017249;28;20096;-68
2021/03/03 10:01:51;;;;;;;53.60;25.23;;;;;;;9.45;62.40;100031.88;5012594;28;20077;-69
2021/03/03 10:04:17;;;;;;;52.00;23.00;;;;;;;9.45;61.79;100016.53;5015007;28;20312;-69
2021/03/03 10:06:43;;;;;;;63.00;27.63;;;;;;;9.46;61.88;100023.38;5013413;28;20402;-69
2021/03/03 10:09:10;;;;;;;51.53;23.47;;;;;;;9.52;61.47;100015.72;5013207;28;20053;-68
2021/03/03 10:11:35;;;;;;;42.23;20.97;;;;;;;9.62;61.18;100009.81;5013742;28;20286;-68
2021/03/03 10:14:08;;;;;;;56.23;27.33;;;;;;;9.58;61.55;100013.22;5014613;28;20030;-69
2021/03/03 10:16:35;;;;;;;59.57;27.20;;;;;;;9.53;61.71;100017.44;5012885;28;20245;-68
2021/03/03 10:19:06;;;;;;;50.37;23.60;;;;;;;9.70;61.66;100010.72;5013994;28;20033;-69
2021/03/03 10:21:36;;;;;;;47.63;23.50;;;;;;;9.81;60.94;100011.66;5013718;28;20080;-70
2021/03/03 10:24:16;;;;;;;47.97;21.47;;;;;;;10.08;60.50;100005.81;4996799;28;20028;-68
2021/03/03 10:26:46;;;;;;;51.20;23.57;;;;;;;9.95;60.35;99999.78;5011253;28;20097;-69
2021/03/03 10:29:13;;;;;;;49.07;23.47;;;;;;;10.01;60.00;99993.84;5014842;28;20079;-69
2021/03/03 10:31:39;;;;;;;47.73;21.67;;;;;;;10.08;59.98;99995.56;4998693;28;20026;-69
2021/03/03 10:34:10;;;;;;;46.93;22.13;;;;;;;10.10;59.66;99991.31;5000866;28;20360;-68
2021/03/03 10:36:41;;;;;;;47.93;23.10;;;;;;;10.19;59.39;99991.38;5019631;28;20029;-68
2021/03/03 10:39:08;;;;;;;41.57;20.63;;;;;;;10.33;59.03;99996.56;5019125;28;20326;-69
2021/03/03 10:41:35;;;;;;;44.28;21.63;;;;;;;10.45;58.35;99994.91;5018767;28;20346;-68
2021/03/03 10:44:05;;;;;;;45.67;23.42;;;;;;;10.37;58.12;99973.50;5018879;28;20041;-69
2021/03/03 10:46:31;;;;;;;46.60;22.20;;;;;;;10.46;57.85;99968.41;5020291;28;20022;-69
2021/03/03 10:49:12;;;;;;;54.85;24.05;;;;;;;10.68;57.77;99977.03;5019974;28;20061;-69
2021/03/03 10:51:38;;;;;;;44.17;20.48;;;;;;;10.72;57.39;99971.06;5018468;28;20075;-70
2021/03/03 10:54:04;;;;;;;45.90;22.73;;;;;;;10.74;57.60;99974.47;5019361;28;20071;-68
2021/03/03 10:56:40;;;;;;;49.20;22.23;;;;;;;10.92;57.40;99964.22;5018246;28;20026;-69
2021/03/03 10:59:07;;;;;;;45.53;22.77;;;;;;;10.87;57.24;99959.94;5016919;28;20034;-69
2021/03/03 11:01:51;;;;;;;50.30;21.30;;;;;;;11.12;57.04;99953.97;5019313;28;20367;-68
2021/03/03 11:04:16;;;;;;;43.03;22.63;;;;;;;11.15;56.16;99953.13;5019229;28;20125;-69
2021/03/03 11:06:42;;;;;;;48.85;22.92;;;;;;;11.15;55.61;99940.28;5019641;28;20109;-69
2021/03/03 11:09:12;;;;;;;39.75;20.73;;;;;;;11.10;55.34;99935.16;5018612;28;20041;-68
2021/03/03 11:11:50;;;;;;;38.38;19.38;;;;;;;11.34;55.12;99939.41;5019577;28;20026;-69
2021/03/03 11:14:17;;;;;;;44.88;21.58;;;;;;;11.26;54.93;99929.16;5017133;28;20026;-68
2021/03/03 11:16:47;;;;;;;35.88;19.58;;;;;;;11.59;54.99;99927.38;4998707;28;20022;-69
2021/03/03 11:19:13;;;;;;;37.17;19.92;;;;;;;11.61;54.29;99923.97;5018864;28;20057;-69